createdAt,value
2017-03-27T00:00:59.424Z,89.2
2017-03-27T00:01:59.750Z,89.2
2017-03-27T00:02:59.463Z,89.11
2017-03-27T00:03:59.785Z,88.82
2017-03-27T00:04:59.805Z,88.92
2017-03-27T00:08:59.875Z,88.92
2017-03-27T00:09:59.897Z,88.92
2017-03-27T00:10:59.912Z,88.63
2017-03-27T00:11:59.937Z,88.82
2017-03-27T00:12:59.948Z,88.92
2017-03-27T00:13:59.972Z,88.35
2017-03-27T00:14:59.989Z,88.2
2017-03-27T00:16:00.004Z,87.82
2017-03-27T00:17:00.022Z,88.2
2017-03-27T00:18:00.052Z,87.97
2017-03-27T00:19:00.060Z,88.82
2017-03-27T00:20:00.078Z,89.11
2017-03-27T00:21:00.095Z,89.48
2017-03-27T00:22:00.117Z,89.77
2017-03-27T00:23:00.132Z,89.48
2017-03-27T00:24:00.152Z,89.96
2017-03-27T00:25:00.174Z,90.34
2017-03-27T00:26:00.188Z,90.43
2017-03-27T00:27:14.821Z,90.72
2017-03-27T00:28:00.225Z,91
2017-03-27T00:29:00.244Z,90.72
2017-03-27T00:30:00.265Z,90.62
2017-03-27T00:31:00.277Z,90.81
2017-03-27T00:32:00.298Z,91.09
2017-03-27T00:33:00.317Z,90.53
2017-03-27T00:34:00.333Z,90.05
2017-03-27T00:35:00.048Z,90.34
2017-03-27T00:36:00.065Z,89.96
2017-03-27T00:37:00.386Z,89.86
2017-03-27T00:39:00.424Z,90.91
2017-03-27T00:40:00.447Z,90.91
2017-03-27T00:42:00.176Z,91.38
2017-03-27T00:43:15.114Z,91.85
2017-03-27T00:44:00.515Z,91.66
2017-03-27T00:45:00.534Z,91.76
2017-03-27T00:46:00.551Z,91.38
2017-03-27T00:47:00.569Z,91.76
2017-03-27T00:48:00.589Z,91.38
2017-03-27T00:49:00.609Z,91.19
2017-03-27T00:50:00.623Z,91.47
2017-03-27T00:51:00.640Z,91.47
2017-03-27T00:52:00.658Z,91.76
2017-03-27T00:53:00.687Z,92.19
2017-03-27T00:54:00.698Z,92.47
2017-03-27T00:56:00.730Z,92.76
2017-03-27T00:57:00.747Z,92.66
2017-03-27T00:58:00.768Z,93.13
2017-03-27T00:59:15.403Z,92.66
2017-03-27T01:00:00.804Z,93.13
2017-03-27T01:01:00.819Z,93.51
2017-03-27T01:02:00.838Z,93.42
2017-03-27T01:03:00.855Z,92.9
2017-03-27T01:04:00.874Z,92.71
2017-03-27T01:05:00.892Z,92.9
2017-03-27T01:06:00.910Z,92.76
2017-03-27T01:07:00.929Z,92.66
2017-03-27T01:08:00.948Z,92.94
2017-03-27T01:09:00.965Z,92.94
2017-03-27T01:10:00.983Z,92.94
2017-03-27T01:11:01.001Z,93.32
2017-03-27T01:12:01.029Z,93.61
2017-03-27T01:13:01.047Z,93.7
2017-03-27T01:14:01.064Z,93.32
2017-03-27T01:15:15.687Z,94.08
2017-03-27T01:16:01.094Z,93.8
2017-03-27T01:17:01.113Z,93.7
2017-03-27T01:18:01.127Z,93.8
2017-03-27T01:19:01.143Z,93.89
2017-03-27T01:20:01.162Z,93.99
2017-03-27T01:21:01.183Z,94.93
2017-03-27T01:22:01.200Z,94.27
2017-03-27T01:23:01.235Z,94.27
2017-03-27T01:24:01.240Z,94.56
2017-03-27T01:25:01.249Z,94.84
2017-03-27T01:28:01.305Z,94.27
2017-03-27T01:29:01.323Z,94.27
2017-03-27T01:30:15.954Z,94.65
2017-03-27T01:31:01.356Z,94.65
2017-03-27T01:32:01.373Z,95.12
2017-03-27T01:33:01.394Z,94.93
2017-03-27T01:34:01.411Z,94.74
2017-03-27T01:35:01.428Z,94.93
2017-03-27T01:36:01.452Z,94.56
2017-03-27T01:37:01.461Z,94.46
2017-03-27T01:39:01.499Z,94.56
2017-03-27T01:40:01.515Z,94.74
2017-03-27T01:41:01.534Z,94.56
2017-03-27T01:42:01.553Z,94.56
2017-03-27T01:44:01.587Z,94.74
2017-03-27T01:45:01.605Z,95.12
2017-03-27T01:46:01.622Z,94.84
2017-03-27T01:47:01.637Z,94.46
2017-03-27T01:48:01.658Z,94.37
2017-03-27T01:49:01.675Z,94.46
2017-03-27T01:50:01.692Z,95.12
2017-03-27T01:51:01.708Z,95.03
2017-03-27T01:52:01.736Z,95.41
2017-03-27T01:53:01.746Z,95.5
2017-03-27T01:54:01.768Z,95.98
2017-03-27T01:55:01.784Z,95.79
2017-03-27T01:56:01.795Z,96.26
2017-03-27T01:57:01.817Z,96.17
2017-03-27T01:58:01.832Z,96.02
2017-03-27T01:59:01.852Z,95.88
2017-03-27T02:00:01.868Z,96.26
2017-03-27T02:01:01.882Z,96.5
2017-03-27T02:02:16.517Z,96.02
2017-03-27T02:03:01.919Z,95.74
2017-03-27T02:04:01.937Z,96.59
2017-03-27T02:05:01.953Z,96.78
2017-03-27T02:06:01.972Z,96.59
2017-03-27T02:07:01.987Z,96.88
2017-03-27T02:08:02.007Z,96.31
2017-03-27T02:09:02.025Z,96.78
2017-03-27T02:10:02.042Z,97.21
2017-03-27T02:11:02.059Z,97.44
2017-03-27T02:12:02.075Z,97.06
2017-03-27T02:14:02.112Z,97.44
2017-03-27T02:15:02.130Z,97.44
2017-03-27T02:16:02.146Z,97.16
2017-03-27T02:17:02.163Z,97.73
2017-03-27T02:18:16.795Z,97.73
2017-03-27T02:19:02.199Z,98.01
2017-03-27T02:20:02.217Z,97.59
2017-03-27T02:21:02.233Z,97.97
2017-03-27T02:22:02.282Z,98.01
2017-03-27T02:23:02.269Z,97.4
2017-03-27T02:25:02.300Z,97.11
2017-03-27T02:26:02.319Z,96.83
2017-03-27T02:27:02.337Z,96.83
2017-03-27T02:28:02.054Z,96.64
2017-03-27T02:29:02.374Z,96.59
2017-03-27T02:30:02.391Z,97.16
2017-03-27T02:31:02.404Z,96.78
2017-03-27T02:32:02.422Z,97.16
2017-03-27T02:33:02.440Z,97.73
2017-03-27T02:34:17.072Z,97.54
2017-03-27T02:35:02.476Z,98.01
2017-03-27T02:36:02.492Z,97.82
2017-03-27T02:37:02.509Z,98.11
2017-03-27T02:38:02.524Z,98.39
2017-03-27T02:39:02.541Z,98.49
2017-03-27T02:40:02.559Z,98.58
2017-03-27T02:41:02.283Z,98.39
2017-03-27T02:42:02.593Z,98.49
2017-03-27T02:43:02.610Z,98.86
2017-03-27T02:44:02.628Z,98.77
2017-03-27T02:45:02.644Z,98.77
2017-03-27T02:47:02.680Z,99.05
2017-03-27T02:48:02.697Z,98.96
2017-03-27T02:49:02.714Z,98.96
2017-03-27T02:50:17.345Z,98.49
2017-03-27T02:51:02.749Z,98.96
2017-03-27T02:52:02.765Z,98.77
2017-03-27T02:53:02.781Z,98.39
2017-03-27T02:54:02.799Z,99.05
2017-03-27T02:55:02.817Z,98.86
2017-03-27T02:56:02.835Z,99.15
2017-03-27T02:57:02.850Z,99.24
2017-03-27T02:58:02.867Z,98.96
2017-03-27T02:59:02.884Z,98.96
2017-03-27T03:00:02.901Z,99.33
2017-03-27T03:01:02.919Z,99.43
2017-03-27T03:04:02.970Z,99.52
2017-03-27T03:05:17.603Z,99.9
2017-03-27T03:06:03.006Z,99.81
2017-03-27T03:07:03.021Z,99.62
2017-03-27T03:08:03.039Z,99.81
2017-03-27T03:09:03.056Z,99.43
2017-03-27T03:10:03.073Z,98.86
2017-03-27T03:11:03.089Z,98.39
2017-03-27T03:12:03.107Z,98.77
2017-03-27T03:13:03.124Z,98.49
2017-03-27T03:14:03.142Z,99.05
2017-03-27T03:15:03.157Z,98.77
2017-03-27T03:17:03.197Z,99.33
2017-03-27T03:18:03.211Z,99.52
2017-03-27T03:19:03.227Z,99.24
2017-03-27T03:20:03.242Z,99.33
2017-03-27T03:21:03.260Z,99.43
2017-03-27T03:22:03.277Z,99.9
2017-03-27T03:23:03.294Z,99.85
2017-03-27T03:24:03.312Z,99.66
2017-03-27T03:25:03.332Z,99.66
2017-03-27T03:26:03.346Z,99.99
2017-03-27T03:27:03.361Z,99.99
2017-03-27T03:28:03.381Z,99.99
2017-03-27T03:29:03.395Z,99.99
2017-03-27T03:30:03.413Z,99.99
2017-03-27T03:31:03.430Z,99.85
2017-03-27T03:32:03.478Z,99.99
2017-03-27T03:33:03.474Z,99.99
2017-03-27T03:34:03.479Z,99.99
2017-03-27T03:35:03.496Z,99.62
2017-03-27T03:36:03.211Z,99.66
2017-03-27T03:37:18.145Z,99.48
2017-03-27T03:38:03.560Z,99.99
2017-03-27T03:40:03.583Z,99.99
2017-03-27T03:41:03.611Z,99.99
2017-03-27T03:42:03.627Z,99.99
2017-03-27T03:43:03.641Z,99.99
2017-03-27T03:44:03.647Z,99.99
2017-03-27T03:45:03.668Z,99.99
2017-03-27T03:46:03.683Z,99.99
2017-03-27T03:47:03.697Z,99.99
2017-03-27T03:48:03.722Z,99.99
2017-03-27T03:50:03.749Z,99.99
2017-03-27T03:51:03.765Z,99.99
2017-03-27T03:52:03.782Z,99.99
2017-03-27T03:53:18.414Z,99.99
2017-03-27T03:54:03.829Z,99.99
2017-03-27T03:55:03.831Z,99.99
2017-03-27T03:56:03.860Z,99.99
2017-03-27T03:57:03.868Z,99.99
2017-03-27T03:58:03.882Z,99.99
2017-03-27T03:59:03.899Z,99.99
2017-03-27T04:00:03.924Z,99.99
2017-03-27T04:01:03.933Z,99.99
2017-03-27T04:02:03.950Z,99.99
2017-03-27T04:03:03.969Z,99.99
2017-03-27T04:04:03.986Z,99.99
2017-03-27T04:05:04.004Z,99.99
2017-03-27T04:06:04.015Z,99.99
2017-03-27T04:07:04.031Z,99.99
2017-03-27T04:08:04.050Z,99.99
2017-03-27T04:09:18.680Z,99.99
2017-03-27T04:10:04.083Z,99.99
2017-03-27T04:11:04.099Z,99.99
2017-03-27T04:12:04.116Z,99.99
2017-03-27T04:13:04.135Z,99.99
2017-03-27T04:14:04.150Z,99.99
2017-03-27T04:15:04.168Z,99.99
2017-03-27T04:16:04.184Z,99.99
2017-03-27T04:17:04.200Z,99.99
2017-03-27T04:18:04.215Z,99.99
2017-03-27T04:19:04.234Z,99.99
2017-03-27T04:21:04.264Z,99.99
2017-03-27T04:22:04.282Z,99.99
2017-03-27T04:23:04.298Z,99.99
2017-03-27T04:24:04.320Z,99.99
2017-03-27T04:25:18.946Z,99.99
2017-03-27T04:26:04.352Z,99.99
2017-03-27T04:27:04.365Z,99.99
2017-03-27T04:28:04.382Z,99.99
2017-03-27T04:29:04.397Z,99.99
2017-03-27T04:30:04.412Z,99.99
2017-03-27T04:31:04.429Z,99.99
2017-03-27T04:32:04.446Z,99.99
2017-03-27T04:33:04.465Z,99.99
2017-03-27T04:34:04.480Z,99.99
2017-03-27T04:35:04.500Z,99.99
2017-03-27T04:36:04.511Z,99.99
2017-03-27T04:37:04.226Z,99.99
2017-03-27T04:38:04.551Z,99.99
2017-03-27T04:39:04.564Z,99.99
2017-03-27T04:40:19.193Z,99.99
2017-03-27T04:41:04.596Z,99.99
2017-03-27T04:42:04.613Z,99.99
2017-03-27T04:43:04.630Z,99.99
2017-03-27T04:44:04.644Z,99.99
2017-03-27T04:45:04.662Z,99.99
2017-03-27T04:46:04.676Z,99.99
2017-03-27T04:47:04.698Z,99.99
2017-03-27T04:48:04.714Z,99.99
2017-03-27T04:50:04.742Z,99.99
2017-03-27T04:51:04.758Z,99.99
2017-03-27T04:52:04.778Z,99.99
2017-03-27T04:53:04.794Z,99.99
2017-03-27T04:54:04.809Z,99.99
2017-03-27T04:55:04.826Z,99.99
2017-03-27T04:56:04.842Z,99.99
2017-03-27T04:57:04.860Z,99.99
2017-03-27T04:58:04.875Z,99.99
2017-03-27T04:59:04.891Z,99.99
2017-03-27T05:00:04.603Z,99.99
2017-03-27T05:02:04.940Z,99.99
2017-03-27T05:03:04.956Z,99.99
2017-03-27T05:04:04.978Z,99.99
2017-03-27T05:06:05.004Z,99.99
2017-03-27T05:07:05.022Z,99.99
2017-03-27T05:08:05.037Z,99.99
2017-03-27T05:09:05.057Z,99.99
2017-03-27T05:10:05.075Z,99.99
2017-03-27T05:11:05.088Z,99.99
2017-03-27T05:12:19.719Z,99.99
2017-03-27T05:13:05.124Z,99.99
2017-03-27T05:14:05.139Z,99.99
2017-03-27T05:15:05.153Z,99.99
2017-03-27T05:16:05.171Z,99.99
2017-03-27T05:17:05.188Z,99.99
2017-03-27T05:18:05.206Z,99.99
2017-03-27T05:19:05.220Z,99.99
2017-03-27T05:20:04.932Z,99.99
2017-03-27T05:21:05.254Z,99.99
2017-03-27T05:22:05.271Z,99.99
2017-03-27T05:23:05.289Z,99.99
2017-03-27T05:24:05.303Z,99.99
2017-03-27T05:25:05.320Z,99.99
2017-03-27T05:26:05.033Z,99.99
2017-03-27T05:27:05.049Z,99.99
2017-03-27T05:28:19.986Z,99.99
2017-03-27T05:29:05.387Z,99.99
2017-03-27T05:30:05.100Z,99.99
2017-03-27T05:31:05.422Z,99.99
2017-03-27T05:32:05.442Z,99.99
2017-03-27T05:33:05.459Z,99.99
2017-03-27T05:34:05.475Z,99.99
2017-03-27T05:35:05.493Z,99.99
2017-03-27T05:36:05.512Z,99.99
2017-03-27T05:37:05.530Z,99.99
2017-03-27T05:38:05.548Z,99.99
2017-03-27T05:40:05.586Z,99.99
2017-03-27T05:41:05.606Z,99.99
2017-03-27T05:42:05.620Z,99.99
2017-03-27T05:43:05.648Z,99.99
2017-03-27T05:44:20.273Z,99.15
2017-03-27T05:45:05.376Z,98.68
2017-03-27T05:46:05.695Z,98.07
2017-03-27T05:47:05.724Z,97.02
2017-03-27T05:48:05.765Z,97.4
2017-03-27T05:49:05.760Z,95.98
2017-03-27T05:50:05.779Z,95.03
2017-03-27T05:51:05.800Z,94.84
2017-03-27T05:52:05.513Z,94.74
2017-03-27T05:53:05.839Z,94.84
2017-03-27T05:54:05.858Z,95.03
2017-03-27T05:55:05.576Z,95.12
2017-03-27T05:57:05.922Z,93.84
2017-03-27T05:58:05.943Z,93.46
2017-03-27T05:59:05.962Z,93.56
2017-03-27T06:00:20.601Z,92.42
2017-03-27T06:01:06.009Z,92.23
2017-03-27T06:02:06.032Z,91.42
2017-03-27T06:03:06.056Z,90.66
2017-03-27T06:04:06.073Z,89.62
2017-03-27T06:05:06.095Z,88.95
2017-03-27T06:06:06.118Z,87.76
2017-03-27T06:07:06.140Z,86.34
2017-03-27T06:08:06.163Z,86.15
2017-03-27T06:09:06.188Z,84.67
2017-03-27T06:13:06.289Z,80
2017-03-27T06:14:06.311Z,79.33
2017-03-27T06:15:20.951Z,78.38
2017-03-27T06:16:06.361Z,76.9
2017-03-27T06:17:06.387Z,76.71
2017-03-27T06:18:06.414Z,76.04
2017-03-27T06:19:06.439Z,75.57
2017-03-27T06:20:06.464Z,74.84
2017-03-27T06:21:06.494Z,74.37
2017-03-27T06:22:06.517Z,73.7
2017-03-27T06:23:06.546Z,73.51
2017-03-27T06:24:06.571Z,72.78
2017-03-27T06:25:06.600Z,71.36
2017-03-27T06:26:06.660Z,70.78
2017-03-27T06:27:06.661Z,69.87
2017-03-27T06:28:06.684Z,68.44
2017-03-27T06:29:06.711Z,67.8
2017-03-27T06:30:06.742Z,66.94
2017-03-27T06:31:06.769Z,66.85
2017-03-27T06:32:06.800Z,66.18
2017-03-27T06:33:06.829Z,65.99
2017-03-27T06:34:06.859Z,64.97
2017-03-27T06:35:06.887Z,64.21
2017-03-27T06:36:06.611Z,64.5
2017-03-27T06:37:06.973Z,63.73
2017-03-27T06:38:06.979Z,62.43
2017-03-27T06:39:07.009Z,61.95
2017-03-27T06:40:07.039Z,61.57
2017-03-27T06:42:06.795Z,59.47
2017-03-27T06:43:07.131Z,59.41
2017-03-27T06:44:06.855Z,59.22
2017-03-27T06:45:06.888Z,58.54
2017-03-27T06:46:07.222Z,58.07
2017-03-27T06:47:21.873Z,57.43
2017-03-27T06:48:06.983Z,57.14
2017-03-27T06:49:07.319Z,55.52
2017-03-27T06:50:07.350Z,55.61
2017-03-27T06:51:07.382Z,55.26
2017-03-27T06:52:07.415Z,54.78
2017-03-27T06:53:07.449Z,54.39
2017-03-27T06:54:07.475Z,54.68
2017-03-27T06:55:07.207Z,53.75
2017-03-27T06:56:07.568Z,53.92
2017-03-27T06:57:07.575Z,52.89
2017-03-27T06:59:07.641Z,51.87
2017-03-27T07:01:07.707Z,51.87
2017-03-27T07:02:07.434Z,51.39
2017-03-27T07:03:22.391Z,51.1
2017-03-27T07:04:07.806Z,50.24
2017-03-27T07:05:07.839Z,49.98
2017-03-27T07:06:07.872Z,49.79
2017-03-27T07:07:07.906Z,48.93
2017-03-27T07:08:07.635Z,49.14
2017-03-27T07:09:07.669Z,48.64
2017-03-27T07:10:08.005Z,48.18
2017-03-27T07:11:08.039Z,48.38
2017-03-27T07:12:08.072Z,47.71
2017-03-27T07:13:08.107Z,46.84
2017-03-27T07:14:08.139Z,46.94
2017-03-27T07:16:07.904Z,46.36
2017-03-27T07:17:08.241Z,45.9
2017-03-27T07:18:08.277Z,46
2017-03-27T07:19:22.928Z,45.81
2017-03-27T07:20:08.342Z,44.87
2017-03-27T07:21:08.378Z,44.49
2017-03-27T07:22:08.415Z,44.4
2017-03-27T07:23:08.448Z,44.3
2017-03-27T07:24:08.480Z,44.2
2017-03-27T07:25:08.517Z,43.53
2017-03-27T07:26:08.547Z,43.44
2017-03-27T07:27:08.279Z,43.24
2017-03-27T07:28:08.336Z,43.07
2017-03-27T07:29:08.650Z,42.96
2017-03-27T07:30:08.685Z,42.98
2017-03-27T07:32:08.755Z,42.4
2017-03-27T07:33:08.789Z,41.44
2017-03-27T07:34:08.823Z,42.4
2017-03-27T07:35:23.475Z,41.63
2017-03-27T07:36:08.893Z,41.63
2017-03-27T07:37:08.926Z,40.77
2017-03-27T07:38:08.958Z,40.67
2017-03-27T07:39:08.993Z,40.5
2017-03-27T07:40:08.725Z,40.02
2017-03-27T07:41:09.060Z,39.64
2017-03-27T07:43:09.129Z,39.66
2017-03-27T07:44:09.164Z,40.14
2017-03-27T07:45:08.895Z,39.47
2017-03-27T07:46:09.232Z,38.7
2017-03-27T07:47:09.269Z,38.41
2017-03-27T07:49:09.032Z,39.2
2017-03-27T07:50:23.989Z,38.53
2017-03-27T07:51:09.402Z,39.2
2017-03-27T07:52:09.437Z,39.2
2017-03-27T07:53:09.472Z,38.62
2017-03-27T07:54:09.505Z,37.66
2017-03-27T07:55:09.541Z,37.47
2017-03-27T07:56:09.573Z,37.47
2017-03-27T07:57:09.609Z,37.3
2017-03-27T07:58:09.643Z,36.91
2017-03-27T07:59:09.673Z,38.22
2017-03-27T08:00:09.409Z,38.24
2017-03-27T08:02:09.778Z,37.26
2017-03-27T08:04:09.878Z,37.37
2017-03-27T08:05:09.875Z,37.18
2017-03-27T08:06:09.909Z,37.39
2017-03-27T08:07:09.945Z,37.49
2017-03-27T08:08:09.977Z,36.8
2017-03-27T08:09:10.009Z,36.22
2017-03-27T08:10:10.059Z,36.41
2017-03-27T08:11:10.073Z,35.93
2017-03-27T08:12:09.804Z,35.72
2017-03-27T08:13:10.142Z,36.03
2017-03-27T08:14:10.178Z,36.03
2017-03-27T08:15:10.212Z,36.13
2017-03-27T08:16:10.240Z,36.7
2017-03-27T08:17:10.272Z,36.33
2017-03-27T08:18:10.306Z,37.2
2017-03-27T08:19:10.340Z,36.07
2017-03-27T08:20:10.371Z,34.72
2017-03-27T08:21:10.401Z,35.3
2017-03-27T08:22:25.055Z,34.81
2017-03-27T08:23:10.468Z,34.06
2017-03-27T08:24:10.501Z,33.2
2017-03-27T08:25:10.539Z,33.28
2017-03-27T08:26:10.565Z,34.54
2017-03-27T08:27:10.600Z,34.53
2017-03-27T08:28:10.633Z,34.43
2017-03-27T08:29:10.663Z,34.06
2017-03-27T08:30:10.696Z,34.64
2017-03-27T08:31:10.729Z,34.45
2017-03-27T08:32:10.762Z,34.43
2017-03-27T08:33:10.794Z,34.14
2017-03-27T08:34:10.827Z,33.1
2017-03-27T08:35:10.860Z,32.7
2017-03-27T08:37:10.923Z,33.85
2017-03-27T08:38:25.574Z,35
2017-03-27T08:39:10.988Z,34.05
2017-03-27T08:40:11.020Z,33.16
2017-03-27T08:41:11.051Z,33.56
2017-03-27T08:42:11.087Z,33.28
2017-03-27T08:43:11.119Z,32.71
2017-03-27T08:44:11.147Z,34.06
2017-03-27T08:45:11.183Z,34.64
2017-03-27T08:46:11.213Z,34.64
2017-03-27T08:47:11.245Z,33.87
2017-03-27T08:48:11.274Z,33.97
2017-03-27T08:50:11.054Z,32.51
2017-03-27T08:51:11.371Z,33.84
2017-03-27T08:52:11.416Z,33.28
2017-03-27T08:53:11.431Z,33.08
2017-03-27T08:54:26.087Z,35
2017-03-27T08:55:11.500Z,34.25
2017-03-27T08:56:11.539Z,33.75
2017-03-27T08:57:11.562Z,33.85
2017-03-27T08:58:11.595Z,33.37
2017-03-27T08:59:11.636Z,34.61
2017-03-27T09:00:11.661Z,33.85
2017-03-27T09:01:11.689Z,33.66
2017-03-27T09:02:11.722Z,34.12
2017-03-27T09:03:11.752Z,34.33
2017-03-27T09:04:11.784Z,33.75
2017-03-27T09:05:11.514Z,33.64
2017-03-27T09:06:11.845Z,35.3
2017-03-27T09:07:11.879Z,34.14
2017-03-27T09:08:11.910Z,33.28
2017-03-27T09:09:11.941Z,33.56
2017-03-27T09:10:26.589Z,34.23
2017-03-27T09:11:12.026Z,33.37
2017-03-27T09:12:12.034Z,33.66
2017-03-27T09:13:12.065Z,33.39
2017-03-27T09:14:12.099Z,32.9
2017-03-27T09:15:12.129Z,32.81
2017-03-27T09:16:11.855Z,31.09
2017-03-27T09:17:12.193Z,31.75
2017-03-27T09:18:12.223Z,33.36
2017-03-27T09:19:12.254Z,33.08
2017-03-27T09:20:12.282Z,34.81
2017-03-27T09:21:12.316Z,35.49
2017-03-27T09:23:12.378Z,35.41
2017-03-27T09:24:12.407Z,33.59
2017-03-27T09:25:27.059Z,32.73
2017-03-27T09:26:12.471Z,32.82
2017-03-27T09:27:12.501Z,33.02
2017-03-27T09:28:12.531Z,31.67
2017-03-27T09:29:12.570Z,31.27
2017-03-27T09:30:12.593Z,32.82
2017-03-27T09:31:12.624Z,32.25
2017-03-27T09:32:12.658Z,32.14
2017-03-27T09:33:12.687Z,33.87
2017-03-27T09:34:12.725Z,34.64
2017-03-27T09:35:12.750Z,34.45
2017-03-27T09:37:12.809Z,33.5
2017-03-27T09:38:12.839Z,32.9
2017-03-27T09:39:12.874Z,32.43
2017-03-27T09:40:12.903Z,33.97
2017-03-27T09:41:12.933Z,33.21
2017-03-27T09:42:12.965Z,32.54
2017-03-27T09:43:12.997Z,32.33
2017-03-27T09:44:12.724Z,32.81
2017-03-27T09:45:13.094Z,31.65
2017-03-27T09:46:13.091Z,31.95
2017-03-27T09:47:13.118Z,32.62
2017-03-27T09:48:13.151Z,33.58
2017-03-27T09:49:13.176Z,32.15
2017-03-27T09:50:12.905Z,33
2017-03-27T09:51:13.240Z,33.77
2017-03-27T09:53:13.301Z,31.56
2017-03-27T09:54:13.633Z,32.12
2017-03-27T09:55:13.367Z,32.23
2017-03-27T09:56:13.418Z,32.71
2017-03-27T09:57:28.041Z,33.16
2017-03-27T09:58:13.455Z,34.3
2017-03-27T09:59:13.483Z,35.74
2017-03-27T10:00:13.514Z,35.08
2017-03-27T10:01:13.543Z,35.38
2017-03-27T10:02:13.574Z,34.8
2017-03-27T10:03:13.301Z,34.14
2017-03-27T10:04:13.635Z,34.43
2017-03-27T10:05:13.698Z,33
2017-03-27T10:06:13.694Z,33.85
2017-03-27T10:07:13.721Z,35.58
2017-03-27T10:08:13.756Z,34.45
2017-03-27T10:09:13.784Z,33.39
2017-03-27T10:11:13.842Z,33.58
2017-03-27T10:12:13.871Z,32.33
2017-03-27T10:13:28.524Z,32.71
2017-03-27T10:14:13.931Z,33.36
2017-03-27T10:15:13.961Z,34.3
2017-03-27T10:16:13.990Z,35.74
2017-03-27T10:17:14.022Z,37.27
2017-03-27T10:18:14.053Z,36.7
2017-03-27T10:19:14.080Z,35.06
2017-03-27T10:20:14.110Z,35.05
2017-03-27T10:21:14.138Z,35.61
2017-03-27T10:23:14.198Z,36.07
2017-03-27T10:25:14.260Z,36.53
2017-03-27T10:27:14.316Z,37.49
2017-03-27T10:28:14.344Z,38.45
2017-03-27T10:29:28.989Z,38.93
2017-03-27T10:30:14.409Z,39.81
2017-03-27T10:31:14.428Z,40
2017-03-27T10:32:14.459Z,39.73
2017-03-27T10:33:14.488Z,39.45
2017-03-27T10:34:14.515Z,39.06
2017-03-27T10:35:14.542Z,39.64
2017-03-27T10:36:14.572Z,38.68
2017-03-27T10:37:14.601Z,39.85
2017-03-27T10:38:14.631Z,38.59
2017-03-27T10:39:14.660Z,36.28
2017-03-27T10:40:14.685Z,38.78
2017-03-27T10:41:14.715Z,38.59
2017-03-27T10:42:14.744Z,38.6
2017-03-27T10:43:14.790Z,38.59
2017-03-27T10:44:14.800Z,37.34
2017-03-27T10:45:29.444Z,36.57
2017-03-27T10:46:14.857Z,36.66
2017-03-27T10:47:14.882Z,36.47
2017-03-27T10:48:14.909Z,36.38
2017-03-27T10:49:14.936Z,36.76
2017-03-27T10:50:14.965Z,37.15
2017-03-27T10:51:14.992Z,39.14
2017-03-27T10:52:15.020Z,38.49
2017-03-27T10:53:15.049Z,39.45
2017-03-27T10:54:15.075Z,38.68
2017-03-27T10:56:14.827Z,39.45
2017-03-27T10:57:14.871Z,39.54
2017-03-27T10:58:15.185Z,38.7
2017-03-27T10:59:14.909Z,38.51
2017-03-27T11:00:29.857Z,37.35
2017-03-27T11:01:15.267Z,38.51
2017-03-27T11:02:15.296Z,38.79
2017-03-27T11:03:15.322Z,37.64
2017-03-27T11:04:15.353Z,36.09
2017-03-27T11:05:15.374Z,36.57
2017-03-27T11:06:15.403Z,36.93
2017-03-27T11:07:15.427Z,37.51
2017-03-27T11:08:15.457Z,37.41
2017-03-27T11:09:15.484Z,38.85
2017-03-27T11:10:15.509Z,37.34
2017-03-27T11:11:15.535Z,35.99
2017-03-27T11:12:15.563Z,38.47
2017-03-27T11:14:15.621Z,39.64
2017-03-27T11:15:15.643Z,37.05
2017-03-27T11:16:15.670Z,37.24
2017-03-27T11:17:15.698Z,37.43
2017-03-27T11:18:15.731Z,36.55
2017-03-27T11:19:15.751Z,38.56
2017-03-27T11:20:15.778Z,37.41
2017-03-27T11:21:15.800Z,38.47
2017-03-27T11:22:15.828Z,36.55
2017-03-27T11:23:15.854Z,37.6
2017-03-27T11:24:15.881Z,36.55
2017-03-27T11:25:15.906Z,38.09
2017-03-27T11:26:15.933Z,37.32
2017-03-27T11:28:15.684Z,36.55
2017-03-27T11:29:16.014Z,36.36
2017-03-27T11:30:16.040Z,36.26
2017-03-27T11:31:16.065Z,36.65
2017-03-27T11:32:30.709Z,37.03
2017-03-27T11:33:16.117Z,37.41
2017-03-27T11:34:16.146Z,36.84
2017-03-27T11:35:16.173Z,38.76
2017-03-27T11:36:16.195Z,39.62
2017-03-27T11:37:16.224Z,38.59
2017-03-27T11:38:16.250Z,38.29
2017-03-27T11:39:16.276Z,36.76
2017-03-27T11:40:16.302Z,37.82
2017-03-27T11:41:16.326Z,37.24
2017-03-27T11:42:16.053Z,35.99
2017-03-27T11:47:16.485Z,38.01
2017-03-27T11:48:31.137Z,38.29
2017-03-27T11:49:16.230Z,36.66
2017-03-27T11:50:16.561Z,37.72
2017-03-27T11:51:16.586Z,38.87
2017-03-27T11:52:16.612Z,37.45
2017-03-27T11:53:16.640Z,37.35
2017-03-27T11:54:16.365Z,35.05
2017-03-27T11:55:16.693Z,35.24
2017-03-27T11:56:16.422Z,36.18
2017-03-27T11:57:16.438Z,36.38
2017-03-27T11:58:16.778Z,36.18
2017-03-27T11:59:16.795Z,36.66
2017-03-27T12:00:16.540Z,37.53
2017-03-27T12:01:16.544Z,36.76
2017-03-27T12:02:16.877Z,37.64
2017-03-27T12:03:16.924Z,37.15
2017-03-27T12:04:31.545Z,36.11
2017-03-27T12:05:16.653Z,35.99
2017-03-27T12:06:16.675Z,36.57
2017-03-27T12:07:17.002Z,34.84
2017-03-27T12:08:16.727Z,34.25
2017-03-27T12:09:16.752Z,34.81
2017-03-27T12:10:17.082Z,35
2017-03-27T12:11:17.106Z,36.05
2017-03-27T12:12:17.134Z,37.4
2017-03-27T12:13:17.159Z,38.47
2017-03-27T12:14:17.187Z,37.13
2017-03-27T12:16:17.234Z,36.46
2017-03-27T12:18:17.289Z,35.69
2017-03-27T12:19:17.011Z,35.4
2017-03-27T12:20:31.956Z,35.57
2017-03-27T12:21:17.365Z,35.57
2017-03-27T12:22:17.086Z,36.24
2017-03-27T12:23:17.112Z,37.03
2017-03-27T12:24:17.140Z,35.59
2017-03-27T12:25:17.163Z,35.21
2017-03-27T12:26:17.522Z,37.32
2017-03-27T12:27:17.518Z,37.22
2017-03-27T12:28:17.242Z,35.3
2017-03-27T12:29:17.582Z,35.4
2017-03-27T12:30:17.594Z,34.84
2017-03-27T12:31:17.318Z,34.73
2017-03-27T12:33:17.674Z,35.61
2017-03-27T12:34:17.397Z,34.36
2017-03-27T12:35:32.343Z,36.47
2017-03-27T12:36:17.773Z,34.94
2017-03-27T12:37:17.779Z,35.51
2017-03-27T12:38:17.810Z,34.75
2017-03-27T12:39:17.830Z,34.45
2017-03-27T12:40:17.552Z,34.63
2017-03-27T12:41:17.897Z,34.75
2017-03-27T12:42:17.602Z,36.16
2017-03-27T12:43:17.636Z,34.94
2017-03-27T12:44:17.957Z,34.53
2017-03-27T12:46:18.008Z,34.53
2017-03-27T12:48:18.069Z,35.49
2017-03-27T12:49:17.781Z,34.73
2017-03-27T12:50:17.822Z,34.63
2017-03-27T12:51:18.141Z,34.61
2017-03-27T12:52:18.164Z,35.57
2017-03-27T12:53:18.188Z,35.86
2017-03-27T12:54:18.213Z,36.44
2017-03-27T12:55:18.238Z,36.65
2017-03-27T12:56:18.280Z,36.74
2017-03-27T12:57:18.306Z,37.89
2017-03-27T12:58:18.315Z,36.38
2017-03-27T12:59:18.340Z,35.61
2017-03-27T13:00:18.074Z,37.6
2017-03-27T13:01:18.391Z,36.38
2017-03-27T13:03:18.444Z,37.32
2017-03-27T13:04:18.470Z,36.95
2017-03-27T13:06:18.523Z,34.06
2017-03-27T13:07:33.163Z,34.92
2017-03-27T13:08:18.572Z,34.82
2017-03-27T13:09:18.293Z,34.44
2017-03-27T13:10:18.317Z,34.92
2017-03-27T13:11:18.647Z,35.59
2017-03-27T13:12:18.676Z,35.21
2017-03-27T13:13:18.699Z,34.92
2017-03-27T13:14:18.727Z,35.21
2017-03-27T13:15:18.748Z,36.74
2017-03-27T13:16:18.791Z,37.89
2017-03-27T13:17:18.800Z,37.05
2017-03-27T13:18:18.522Z,35.61
2017-03-27T13:19:18.852Z,35.3
2017-03-27T13:20:18.934Z,34.82
2017-03-27T13:21:18.918Z,34.73
2017-03-27T13:22:18.938Z,35.02
2017-03-27T13:23:33.571Z,35.21
2017-03-27T13:25:42.191Z,35.78
2017-03-27T13:26:42.211Z,35.8
2017-03-27T13:27:42.245Z,35.4
2017-03-27T13:28:41.963Z,34.75
2017-03-27T13:29:42.290Z,35.03
2017-03-27T13:30:42.313Z,34.65
2017-03-27T13:31:42.339Z,35.11
2017-03-27T13:32:42.374Z,36.28
2017-03-27T13:33:42.393Z,35.99
2017-03-27T13:34:42.418Z,35.71
2017-03-27T13:35:57.058Z,35.13
2017-03-27T13:36:42.467Z,35.91
2017-03-27T13:37:42.494Z,35.63
2017-03-27T13:38:42.520Z,34.95
2017-03-27T13:39:42.545Z,34.38
2017-03-27T13:40:42.571Z,34.86
2017-03-27T13:41:42.593Z,35.91
2017-03-27T13:42:42.619Z,35.72
2017-03-27T13:43:42.645Z,34.76
2017-03-27T13:44:42.670Z,33.31
2017-03-27T13:45:42.696Z,33.59
2017-03-27T13:46:42.721Z,33.5
2017-03-27T13:47:42.750Z,33.31
2017-03-27T13:48:42.805Z,32.54
2017-03-27T13:50:42.824Z,33.78
2017-03-27T13:51:57.466Z,32.25
2017-03-27T13:52:42.873Z,32.25
2017-03-27T13:53:42.898Z,32.14
2017-03-27T13:54:42.924Z,32.52
2017-03-27T13:55:42.951Z,33.48
2017-03-27T13:56:42.978Z,33.77
2017-03-27T13:57:43.000Z,33.86